sensor_id;sensor_type;location;lat;lon;timestamp;P1;durP1;ratioP1;P2;durP2;ratioP2
2211;SDS011;48849;48.758;9.158;2023-11-21T00:01:03;5.88;;;2.65;;
2211;SDS011;48849;48.758;9.158;2023-11-21T00:03:30;5.68;;;3.00;;
2211;SDS011;48849;48.758;9.158;2023-11-21T00:05:57;5.53;;;3.17;;
2211;SDS011;48849;48.758;9.158;2023-11-21T00:08:23;6.30;;;2.60;;
2211;SDS011;48849;48.758;9.158;2023-11-21T00:10:50;5.60;;;3.13;;
2211;SDS011;48849;48.758;9.158;2023-11-21T00:13:17;7.10;;;2.85;;
2211;SDS011;48849;48.758;9.158;2023-11-21T00:15:45;8.50;;;3.15;;
2211;SDS011;48849;48.758;9.158;2023-11-21T00:18:12;6.18;;;2.80;;
2211;SDS011;48849;48.758;9.158;2023-11-21T00:20:39;9.20;;;4.25;;
2211;SDS011;48849;48.758;9.158;2023-11-21T00:23:05;8.32;;;3.08;;
2211;SDS011;48849;48.758;9.158;2023-11-21T00:25:32;7.60;;;4.07;;
2211;SDS011;48849;48.758;9.158;2023-11-21T00:27:59;9.88;;;3.13;;
2211;SDS011;48849;48.758;9.158;2023-11-21T00:30:26;5.07;;;2.88;;
2211;SDS011;48849;48.758;9.158;2023-11-21T00:32:55;4.82;;;3.10;;
2211;SDS011;48849;48.758;9.158;2023-11-21T00:35:21;7.63;;;3.40;;
2211;SDS011;48849;48.758;9.158;2023-11-21T00:37:48;4.63;;;2.65;;
2211;SDS011;48849;48.758;9.158;2023-11-21T00:40:15;6.10;;;2.90;;
2211;SDS011;48849;48.758;9.158;2023-11-21T00:42:44;4.65;;;2.25;;
2211;SDS011;48849;48.758;9.158;2023-11-21T00:45:11;4.40;;;2.45;;
2211;SDS011;48849;48.758;9.158;2023-11-21T00:47:38;4.90;;;2.40;;
2211;SDS011;48849;48.758;9.158;2023-11-21T00:50:06;4.85;;;2.90;;
2211;SDS011;48849;48.758;9.158;2023-11-21T00:52:34;6.22;;;2.45;;
2211;SDS011;48849;48.758;9.158;2023-11-21T00:55:01;5.30;;;2.85;;
2211;SDS011;48849;48.758;9.158;2023-11-21T00:57:28;6.07;;;2.70;;
2211;SDS011;48849;48.758;9.158;2023-11-21T00:59:55;5.40;;;2.20;;
2211;SDS011;48849;48.758;9.158;2023-11-21T01:02:21;4.63;;;2.72;;
2211;SDS011;48849;48.758;9.158;2023-11-21T01:04:48;3.35;;;2.38;;
2211;SDS011;48849;48.758;9.158;2023-11-21T01:07:16;6.68;;;2.95;;
2211;SDS011;48849;48.758;9.158;2023-11-21T01:09:45;6.25;;;2.65;;
2211;SDS011;48849;48.758;9.158;2023-11-21T01:12:12;6.45;;;2.17;;
2211;SDS011;48849;48.758;9.158;2023-11-21T01:14:39;9.23;;;3.33;;
2211;SDS011;48849;48.758;9.158;2023-11-21T01:17:05;6.72;;;2.17;;
2211;SDS011;48849;48.758;9.158;2023-11-21T01:19:32;4.47;;;2.08;;
2211;SDS011;48849;48.758;9.158;2023-11-21T01:21:59;3.45;;;2.30;;
2211;SDS011;48849;48.758;9.158;2023-11-21T01:24:27;6.30;;;2.30;;
2211;SDS011;48849;48.758;9.158;2023-11-21T01:26:54;5.25;;;2.20;;
2211;SDS011;48849;48.758;9.158;2023-11-21T01:29:20;5.75;;;2.50;;
2211;SDS011;48849;48.758;9.158;2023-11-21T01:31:47;4.80;;;2.05;;
2211;SDS011;48849;48.758;9.158;2023-11-21T01:34:14;9.07;;;2.10;;
2211;SDS011;48849;48.758;9.158;2023-11-21T01:36:40;3.70;;;1.90;;
2211;SDS011;48849;48.758;9.158;2023-11-21T01:39:07;3.28;;;1.80;;
2211;SDS011;48849;48.758;9.158;2023-11-21T01:41:39;5.97;;;2.00;;
2211;SDS011;48849;48.758;9.158;2023-11-21T01:44:06;3.97;;;2.30;;
2211;SDS011;48849;48.758;9.158;2023-11-21T01:46:34;3.25;;;1.80;;
2211;SDS011;48849;48.758;9.158;2023-11-21T01:49:02;5.72;;;2.28;;
2211;SDS011;48849;48.758;9.158;2023-11-21T01:51:30;6.72;;;2.08;;
2211;SDS011;48849;48.758;9.158;2023-11-21T01:53:57;2.75;;;1.73;;
2211;SDS011;48849;48.758;9.158;2023-11-21T01:56:24;2.80;;;1.85;;
2211;SDS011;48849;48.758;9.158;2023-11-21T01:58:52;2.78;;;1.95;;
2211;SDS011;48849;48.758;9.158;2023-11-21T02:01:19;4.45;;;2.03;;
2211;SDS011;48849;48.758;9.158;2023-11-21T02:03:46;4.20;;;2.00;;
2211;SDS011;48849;48.758;9.158;2023-11-21T02:06:12;3.03;;;1.73;;
2211;SDS011;48849;48.758;9.158;2023-11-21T02:08:39;3.83;;;2.15;;
2211;SDS011;48849;48.758;9.158;2023-11-21T02:11:07;3.67;;;1.83;;
2211;SDS011;48849;48.758;9.158;2023-11-21T02:13:37;4.50;;;1.95;;
2211;SDS011;48849;48.758;9.158;2023-11-21T02:16:08;4.55;;;2.33;;
2211;SDS011;48849;48.758;9.158;2023-11-21T02:18:37;6.40;;;1.90;;
2211;SDS011;48849;48.758;9.158;2023-11-21T02:21:04;7.10;;;2.40;;
2211;SDS011;48849;48.758;9.158;2023-11-21T02:23:32;3.47;;;1.85;;
2211;SDS011;48849;48.758;9.158;2023-11-21T02:25:59;5.40;;;1.80;;
2211;SDS011;48849;48.758;9.158;2023-11-21T02:28:29;4.00;;;1.95;;
2211;SDS011;48849;48.758;9.158;2023-11-21T02:30:56;3.97;;;1.98;;
2211;SDS011;48849;48.758;9.158;2023-11-21T02:33:24;3.75;;;2.10;;
2211;SDS011;48849;48.758;9.158;2023-11-21T02:35:50;3.20;;;1.90;;
2211;SDS011;48849;48.758;9.158;2023-11-21T02:38:19;7.03;;;1.88;;
2211;SDS011;48849;48.758;9.158;2023-11-21T02:40:48;2.10;;;1.88;;
2211;SDS011;48849;48.758;9.158;2023-11-21T02:43:15;2.25;;;1.65;;
2211;SDS011;48849;48.758;9.158;2023-11-21T02:45:41;2.45;;;1.70;;
2211;SDS011;48849;48.758;9.158;2023-11-21T02:48:08;2.88;;;2.00;;
2211;SDS011;48849;48.758;9.158;2023-11-21T02:50:35;11.52;;;2.60;;
2211;SDS011;48849;48.758;9.158;2023-11-21T02:53:02;5.68;;;1.92;;
2211;SDS011;48849;48.758;9.158;2023-11-21T02:55:30;8.95;;;1.95;;
2211;SDS011;48849;48.758;9.158;2023-11-21T02:58:01;4.10;;;1.85;;
2211;SDS011;48849;48.758;9.158;2023-11-21T03:00:28;3.17;;;1.70;;
2211;SDS011;48849;48.758;9.158;2023-11-21T03:02:55;1.55;;;1.20;;
2211;SDS011;48849;48.758;9.158;2023-11-21T03:05:23;2.75;;;1.77;;
2211;SDS011;48849;48.758;9.158;2023-11-21T03:07:49;3.08;;;1.40;;
2211;SDS011;48849;48.758;9.158;2023-11-21T03:10:16;2.03;;;1.25;;
2211;SDS011;48849;48.758;9.158;2023-11-21T03:12:44;3.28;;;1.10;;
2211;SDS011;48849;48.758;9.158;2023-11-21T03:15:12;3.38;;;1.60;;
2211;SDS011;48849;48.758;9.158;2023-11-21T03:17:39;1.92;;;1.17;;
2211;SDS011;48849;48.758;9.158;2023-11-21T03:20:07;2.50;;;1.40;;
2211;SDS011;48849;48.758;9.158;2023-11-21T03:22:36;3.17;;;1.52;;
2211;SDS011;48849;48.758;9.158;2023-11-21T03:25:03;1.42;;;1.33;;
2211;SDS011;48849;48.758;9.158;2023-11-21T03:27:30;2.03;;;1.42;;
2211;SDS011;48849;48.758;9.158;2023-11-21T03:29:57;1.92;;;1.30;;
2211;SDS011;48849;48.758;9.158;2023-11-21T03:32:26;2.28;;;1.40;;
2211;SDS011;48849;48.758;9.158;2023-11-21T03:34:53;2.97;;;1.27;;
2211;SDS011;48849;48.758;9.158;2023-11-21T03:37:21;1.80;;;1.35;;
2211;SDS011;48849;48.758;9.158;2023-11-21T03:39:48;1.60;;;1.30;;
2211;SDS011;48849;48.758;9.158;2023-11-21T03:42:15;3.22;;;1.30;;
2211;SDS011;48849;48.758;9.158;2023-11-21T03:44:42;2.28;;;1.25;;
2211;SDS011;48849;48.758;9.158;2023-11-21T03:47:09;3.80;;;1.27;;
2211;SDS011;48849;48.758;9.158;2023-11-21T03:49:37;1.30;;;1.20;;
2211;SDS011;48849;48.758;9.158;2023-11-21T03:52:04;1.52;;;1.30;;
2211;SDS011;48849;48.758;9.158;2023-11-21T03:54:32;1.27;;;1.10;;
2211;SDS011;48849;48.758;9.158;2023-11-21T03:56:59;1.70;;;1.20;;
2211;SDS011;48849;48.758;9.158;2023-11-21T03:59:26;2.20;;;1.83;;
2211;SDS011;48849;48.758;9.158;2023-11-21T04:01:54;2.22;;;1.10;;
2211;SDS011;48849;48.758;9.158;2023-11-21T04:04:21;1.23;;;1.05;;
2211;SDS011;48849;48.758;9.158;2023-11-21T04:06:50;1.15;;;0.90;;
2211;SDS011;48849;48.758;9.158;2023-11-21T04:09:17;2.13;;;1.23;;
2211;SDS011;48849;48.758;9.158;2023-11-21T04:11:44;1.95;;;1.10;;
2211;SDS011;48849;48.758;9.158;2023-11-21T04:14:11;1.25;;;1.00;;
2211;SDS011;48849;48.758;9.158;2023-11-21T04:16:38;2.53;;;1.27;;
2211;SDS011;48849;48.758;9.158;2023-11-21T04:19:05;1.23;;;1.00;;
2211;SDS011;48849;48.758;9.158;2023-11-21T04:21:31;2.67;;;0.90;;
2211;SDS011;48849;48.758;9.158;2023-11-21T04:24:00;3.35;;;1.30;;
2211;SDS011;48849;48.758;9.158;2023-11-21T04:26:27;1.70;;;1.05;;
2211;SDS011;48849;48.758;9.158;2023-11-21T04:28:53;1.85;;;1.05;;
2211;SDS011;48849;48.758;9.158;2023-11-21T04:31:20;1.67;;;1.00;;
2211;SDS011;48849;48.758;9.158;2023-11-21T04:33:47;1.48;;;0.95;;
2211;SDS011;48849;48.758;9.158;2023-11-21T04:36:14;3.10;;;1.00;;
2211;SDS011;48849;48.758;9.158;2023-11-21T04:38:40;2.03;;;1.08;;
2211;SDS011;48849;48.758;9.158;2023-11-21T04:41:08;3.72;;;1.27;;
2211;SDS011;48849;48.758;9.158;2023-11-21T04:43:35;1.10;;;0.88;;
2211;SDS011;48849;48.758;9.158;2023-11-21T04:46:02;2.08;;;1.25;;
2211;SDS011;48849;48.758;9.158;2023-11-21T04:48:28;2.50;;;1.10;;
2211;SDS011;48849;48.758;9.158;2023-11-21T04:50:55;0.85;;;0.80;;
2211;SDS011;48849;48.758;9.158;2023-11-21T04:53:22;1.70;;;1.08;;
2211;SDS011;48849;48.758;9.158;2023-11-21T04:55:49;2.67;;;1.10;;
2211;SDS011;48849;48.758;9.158;2023-11-21T04:58:17;1.10;;;1.00;;
2211;SDS011;48849;48.758;9.158;2023-11-21T05:00:45;2.28;;;1.05;;
2211;SDS011;48849;48.758;9.158;2023-11-21T05:03:12;1.90;;;1.08;;
2211;SDS011;48849;48.758;9.158;2023-11-21T05:05:39;5.82;;;1.10;;
2211;SDS011;48849;48.758;9.158;2023-11-21T05:08:05;2.63;;;1.20;;
2211;SDS011;48849;48.758;9.158;2023-11-21T05:10:33;3.38;;;1.60;;
2211;SDS011;48849;48.758;9.158;2023-11-21T05:13:03;2.75;;;1.00;;
2211;SDS011;48849;48.758;9.158;2023-11-21T05:15:34;1.35;;;1.25;;
2211;SDS011;48849;48.758;9.158;2023-11-21T05:18:01;3.30;;;1.05;;
2211;SDS011;48849;48.758;9.158;2023-11-21T05:20:28;3.15;;;1.30;;
2211;SDS011;48849;48.758;9.158;2023-11-21T05:22:54;1.60;;;1.20;;
2211;SDS011;48849;48.758;9.158;2023-11-21T05:25:21;1.35;;;1.15;;
2211;SDS011;48849;48.758;9.158;2023-11-21T05:27:48;2.90;;;1.52;;
2211;SDS011;48849;48.758;9.158;2023-11-21T05:30:15;1.63;;;1.13;;
2211;SDS011;48849;48.758;9.158;2023-11-21T05:32:43;4.03;;;1.48;;
2211;SDS011;48849;48.758;9.158;2023-11-21T05:35:11;3.17;;;1.35;;
2211;SDS011;48849;48.758;9.158;2023-11-21T05:37:40;1.48;;;0.90;;
2211;SDS011;48849;48.758;9.158;2023-11-21T05:40:07;1.20;;;1.10;;
2211;SDS011;48849;48.758;9.158;2023-11-21T05:42:35;1.20;;;1.10;;
2211;SDS011;48849;48.758;9.158;2023-11-21T05:45:03;2.97;;;0.98;;
2211;SDS011;48849;48.758;9.158;2023-11-21T05:47:35;2.88;;;1.30;;
2211;SDS011;48849;48.758;9.158;2023-11-21T05:50:04;1.40;;;1.20;;
2211;SDS011;48849;48.758;9.158;2023-11-21T05:52:35;2.28;;;0.90;;
2211;SDS011;48849;48.758;9.158;2023-11-21T05:55:02;2.25;;;1.13;;
2211;SDS011;48849;48.758;9.158;2023-11-21T05:57:29;1.50;;;1.10;;
2211;SDS011;48849;48.758;9.158;2023-11-21T05:59:56;2.50;;;1.40;;
2211;SDS011;48849;48.758;9.158;2023-11-21T06:02:23;2.40;;;1.02;;
2211;SDS011;48849;48.758;9.158;2023-11-21T06:04:50;1.45;;;1.00;;
2211;SDS011;48849;48.758;9.158;2023-11-21T06:07:19;2.65;;;1.25;;
2211;SDS011;48849;48.758;9.158;2023-11-21T06:09:45;1.33;;;0.85;;
2211;SDS011;48849;48.758;9.158;2023-11-21T06:12:15;2.08;;;1.20;;
2211;SDS011;48849;48.758;9.158;2023-11-21T06:14:42;1.35;;;0.88;;
2211;SDS011;48849;48.758;9.158;2023-11-21T06:17:09;3.33;;;0.90;;
2211;SDS011;48849;48.758;9.158;2023-11-21T06:19:36;1.02;;;0.77;;
2211;SDS011;48849;48.758;9.158;2023-11-21T06:22:03;1.95;;;1.20;;
2211;SDS011;48849;48.758;9.158;2023-11-21T06:24:31;2.13;;;0.90;;
2211;SDS011;48849;48.758;9.158;2023-11-21T06:26:57;1.60;;;1.30;;
2211;SDS011;48849;48.758;9.158;2023-11-21T06:29:24;2.55;;;1.23;;
2211;SDS011;48849;48.758;9.158;2023-11-21T06:31:51;1.67;;;1.17;;
2211;SDS011;48849;48.758;9.158;2023-11-21T06:34:20;1.10;;;1.00;;
2211;SDS011;48849;48.758;9.158;2023-11-21T06:36:46;1.10;;;0.80;;
2211;SDS011;48849;48.758;9.158;2023-11-21T06:39:13;10.85;;;1.60;;
2211;SDS011;48849;48.758;9.158;2023-11-21T06:41:43;2.50;;;2.15;;
2211;SDS011;48849;48.758;9.158;2023-11-21T06:44:09;5.93;;;2.00;;
2211;SDS011;48849;48.758;9.158;2023-11-21T06:46:36;2.10;;;1.40;;
2211;SDS011;48849;48.758;9.158;2023-11-21T06:49:07;2.70;;;1.05;;
2211;SDS011;48849;48.758;9.158;2023-11-21T06:51:34;1.55;;;1.10;;
2211;SDS011;48849;48.758;9.158;2023-11-21T06:54:01;2.70;;;1.30;;
2211;SDS011;48849;48.758;9.158;2023-11-21T06:56:27;2.95;;;1.40;;
2211;SDS011;48849;48.758;9.158;2023-11-21T06:58:56;1.27;;;1.13;;
2211;SDS011;48849;48.758;9.158;2023-11-21T07:01:22;1.50;;;1.30;;
2211;SDS011;48849;48.758;9.158;2023-11-21T07:03:49;1.45;;;1.35;;
2211;SDS011;48849;48.758;9.158;2023-11-21T07:06:16;1.40;;;1.30;;
2211;SDS011;48849;48.758;9.158;2023-11-21T07:08:43;3.97;;;1.67;;
2211;SDS011;48849;48.758;9.158;2023-11-21T07:11:09;2.78;;;1.70;;
2211;SDS011;48849;48.758;9.158;2023-11-21T07:13:37;4.72;;;1.52;;
2211;SDS011;48849;48.758;9.158;2023-11-21T07:16:05;2.97;;;1.30;;
2211;SDS011;48849;48.758;9.158;2023-11-21T07:18:32;2.60;;;1.17;;
2211;SDS011;48849;48.758;9.158;2023-11-21T07:20:59;1.23;;;1.10;;
2211;SDS011;48849;48.758;9.158;2023-11-21T07:23:26;3.22;;;1.20;;
2211;SDS011;48849;48.758;9.158;2023-11-21T07:25:52;2.90;;;1.30;;
2211;SDS011;48849;48.758;9.158;2023-11-21T07:28:19;1.88;;;1.40;;
2211;SDS011;48849;48.758;9.158;2023-11-21T07:30:46;2.10;;;1.90;;
2211;SDS011;48849;48.758;9.158;2023-11-21T07:33:14;2.88;;;1.55;;
2211;SDS011;48849;48.758;9.158;2023-11-21T07:35:41;4.55;;;1.40;;
2211;SDS011;48849;48.758;9.158;2023-11-21T07:38:07;2.13;;;1.40;;
2211;SDS011;48849;48.758;9.158;2023-11-21T07:40:34;4.88;;;1.70;;
2211;SDS011;48849;48.758;9.158;2023-11-21T07:43:01;2.25;;;1.73;;
2211;SDS011;48849;48.758;9.158;2023-11-21T07:45:28;2.72;;;1.73;;
2211;SDS011;48849;48.758;9.158;2023-11-21T07:47:55;2.28;;;1.58;;
2211;SDS011;48849;48.758;9.158;2023-11-21T07:50:23;2.80;;;1.60;;
2211;SDS011;48849;48.758;9.158;2023-11-21T07:52:51;3.45;;;1.70;;
2211;SDS011;48849;48.758;9.158;2023-11-21T07:55:19;2.85;;;1.70;;
2211;SDS011;48849;48.758;9.158;2023-11-21T07:57:46;2.15;;;1.83;;
2211;SDS011;48849;48.758;9.158;2023-11-21T08:00:13;1.60;;;1.50;;
2211;SDS011;48849;48.758;9.158;2023-11-21T08:02:40;1.58;;;1.25;;
2211;SDS011;48849;48.758;9.158;2023-11-21T08:05:08;3.03;;;1.20;;
2211;SDS011;48849;48.758;9.158;2023-11-21T08:07:37;2.85;;;1.52;;
2211;SDS011;48849;48.758;9.158;2023-11-21T08:10:04;2.15;;;1.80;;
2211;SDS011;48849;48.758;9.158;2023-11-21T08:12:31;1.65;;;1.38;;
2211;SDS011;48849;48.758;9.158;2023-11-21T08:14:58;5.53;;;1.65;;
2211;SDS011;48849;48.758;9.158;2023-11-21T08:17:25;2.75;;;1.45;;
2211;SDS011;48849;48.758;9.158;2023-11-21T08:19:52;2.13;;;1.60;;
2211;SDS011;48849;48.758;9.158;2023-11-21T08:22:19;3.05;;;1.70;;
2211;SDS011;48849;48.758;9.158;2023-11-21T08:24:48;2.15;;;1.90;;
2211;SDS011;48849;48.758;9.158;2023-11-21T08:27:15;2.13;;;1.65;;
2211;SDS011;48849;48.758;9.158;2023-11-21T08:29:42;3.67;;;2.00;;
2211;SDS011;48849;48.758;9.158;2023-11-21T08:32:09;4.32;;;2.17;;
2211;SDS011;48849;48.758;9.158;2023-11-21T08:34:36;2.50;;;2.30;;
2211;SDS011;48849;48.758;9.158;2023-11-21T08:37:05;2.42;;;2.22;;
2211;SDS011;48849;48.758;9.158;2023-11-21T08:39:31;3.85;;;2.33;;
2211;SDS011;48849;48.758;9.158;2023-11-21T08:41:59;5.07;;;2.20;;
2211;SDS011;48849;48.758;9.158;2023-11-21T08:44:27;7.18;;;2.53;;
2211;SDS011;48849;48.758;9.158;2023-11-21T08:46:55;3.85;;;2.10;;
2211;SDS011;48849;48.758;9.158;2023-11-21T08:49:22;3.47;;;2.20;;
2211;SDS011;48849;48.758;9.158;2023-11-21T08:51:51;2.08;;;1.88;;
2211;SDS011;48849;48.758;9.158;2023-11-21T08:54:17;4.40;;;2.00;;
2211;SDS011;48849;48.758;9.158;2023-11-21T08:56:45;3.30;;;1.90;;
2211;SDS011;48849;48.758;9.158;2023-11-21T08:59:13;3.03;;;1.88;;
2211;SDS011;48849;48.758;9.158;2023-11-21T09:01:40;3.67;;;2.28;;
2211;SDS011;48849;48.758;9.158;2023-11-21T09:04:07;4.95;;;2.30;;
2211;SDS011;48849;48.758;9.158;2023-11-21T09:06:34;2.30;;;2.00;;
2211;SDS011;48849;48.758;9.158;2023-11-21T09:09:01;5.10;;;2.00;;
2211;SDS011;48849;48.758;9.158;2023-11-21T09:11:29;2.20;;;2.00;;
2211;SDS011;48849;48.758;9.158;2023-11-21T09:13:58;3.85;;;2.50;;
2211;SDS011;48849;48.758;9.158;2023-11-21T09:16:26;2.55;;;2.00;;
2211;SDS011;48849;48.758;9.158;2023-11-21T09:18:53;2.10;;;1.90;;
2211;SDS011;48849;48.758;9.158;2023-11-21T09:21:20;2.67;;;2.38;;
2211;SDS011;48849;48.758;9.158;2023-11-21T09:23:48;3.28;;;2.65;;
2211;SDS011;48849;48.758;9.158;2023-11-21T09:26:15;2.95;;;2.58;;
2211;SDS011;48849;48.758;9.158;2023-11-21T09:28:43;2.50;;;2.28;;
2211;SDS011;48849;48.758;9.158;2023-11-21T09:31:12;1.70;;;1.60;;
2211;SDS011;48849;48.758;9.158;2023-11-21T09:33:42;5.95;;;2.00;;
2211;SDS011;48849;48.758;9.158;2023-11-21T09:36:11;3.83;;;2.22;;
2211;SDS011;48849;48.758;9.158;2023-11-21T09:38:39;3.92;;;2.00;;
2211;SDS011;48849;48.758;9.158;2023-11-21T09:41:07;3.08;;;1.70;;
2211;SDS011;48849;48.758;9.158;2023-11-21T09:43:42;2.97;;;1.80;;
2211;SDS011;48849;48.758;9.158;2023-11-21T09:46:12;4.22;;;1.80;;
2211;SDS011;48849;48.758;9.158;2023-11-21T09:48:46;3.13;;;1.80;;
2211;SDS011;48849;48.758;9.158;2023-11-21T09:51:16;2.03;;;1.52;;
2211;SDS011;48849;48.758;9.158;2023-11-21T09:53:47;1.70;;;1.02;;
2211;SDS011;48849;48.758;9.158;2023-11-21T09:56:17;1.25;;;1.15;;
2211;SDS011;48849;48.758;9.158;2023-11-21T09:58:50;1.40;;;1.08;;
2211;SDS011;48849;48.758;9.158;2023-11-21T10:01:17;1.63;;;1.45;;
2211;SDS011;48849;48.758;9.158;2023-11-21T10:03:47;1.45;;;1.08;;
2211;SDS011;48849;48.758;9.158;2023-11-21T10:06:13;1.80;;;1.23;;
2211;SDS011;48849;48.758;9.158;2023-11-21T10:08:41;2.28;;;1.40;;
2211;SDS011;48849;48.758;9.158;2023-11-21T10:11:08;1.42;;;1.10;;
2211;SDS011;48849;48.758;9.158;2023-11-21T10:13:39;1.58;;;1.30;;
2211;SDS011;48849;48.758;9.158;2023-11-21T10:16:07;1.80;;;1.10;;
2211;SDS011;48849;48.758;9.158;2023-11-21T10:18:38;1.13;;;1.00;;
2211;SDS011;48849;48.758;9.158;2023-11-21T10:21:07;2.00;;;1.52;;
2211;SDS011;48849;48.758;9.158;2023-11-21T10:23:35;1.77;;;1.52;;
2211;SDS011;48849;48.758;9.158;2023-11-21T10:26:01;1.90;;;1.30;;
2211;SDS011;48849;48.758;9.158;2023-11-21T10:28:30;1.77;;;1.10;;
2211;SDS011;48849;48.758;9.158;2023-11-21T10:30:58;1.77;;;1.15;;
2211;SDS011;48849;48.758;9.158;2023-11-21T10:33:28;1.40;;;1.17;;
2211;SDS011;48849;48.758;9.158;2023-11-21T10:35:55;1.40;;;1.08;;
2211;SDS011;48849;48.758;9.158;2023-11-21T10:38:23;1.52;;;1.40;;
2211;SDS011;48849;48.758;9.158;2023-11-21T10:40:52;1.20;;;1.02;;
2211;SDS011;48849;48.758;9.158;2023-11-21T10:43:20;3.25;;;1.30;;
2211;SDS011;48849;48.758;9.158;2023-11-21T10:45:51;1.40;;;1.10;;
2211;SDS011;48849;48.758;9.158;2023-11-21T10:48:18;1.13;;;1.02;;
2211;SDS011;48849;48.758;9.158;2023-11-21T10:50:46;2.63;;;1.10;;
2211;SDS011;48849;48.758;9.158;2023-11-21T10:53:13;1.60;;;0.90;;
2211;SDS011;48849;48.758;9.158;2023-11-21T10:55:42;1.13;;;0.98;;
2211;SDS011;48849;48.758;9.158;2023-11-21T10:58:10;2.17;;;1.35;;
2211;SDS011;48849;48.758;9.158;2023-11-21T11:00:39;2.70;;;1.23;;
2211;SDS011;48849;48.758;9.158;2023-11-21T11:03:06;1.60;;;1.13;;
2211;SDS011;48849;48.758;9.158;2023-11-21T11:05:38;2.40;;;1.30;;
2211;SDS011;48849;48.758;9.158;2023-11-21T11:08:08;2.42;;;1.58;;
2211;SDS011;48849;48.758;9.158;2023-11-21T11:10:45;2.58;;;1.30;;
2211;SDS011;48849;48.758;9.158;2023-11-21T11:13:12;1.60;;;1.50;;
2211;SDS011;48849;48.758;9.158;2023-11-21T11:15:40;4.45;;;1.60;;
2211;SDS011;48849;48.758;9.158;2023-11-21T11:18:09;2.00;;;1.40;;
2211;SDS011;48849;48.758;9.158;2023-11-21T11:20:38;1.77;;;1.60;;
2211;SDS011;48849;48.758;9.158;2023-11-21T11:23:13;2.08;;;1.13;;
2211;SDS011;48849;48.758;9.158;2023-11-21T11:26:00;2.22;;;1.52;;
2211;SDS011;48849;48.758;9.158;2023-11-21T11:28:42;4.40;;;1.55;;
2211;SDS011;48849;48.758;9.158;2023-11-21T11:31:14;1.63;;;1.52;;
2211;SDS011;48849;48.758;9.158;2023-11-21T11:33:53;1.73;;;1.63;;
2211;SDS011;48849;48.758;9.158;2023-11-21T11:36:25;1.70;;;1.60;;
2211;SDS011;48849;48.758;9.158;2023-11-21T11:38:55;1.90;;;1.40;;
2211;SDS011;48849;48.758;9.158;2023-11-21T11:41:25;2.10;;;1.50;;
2211;SDS011;48849;48.758;9.158;2023-11-21T11:43:54;1.52;;;1.42;;
2211;SDS011;48849;48.758;9.158;2023-11-21T11:46:22;1.73;;;1.15;;
2211;SDS011;48849;48.758;9.158;2023-11-21T11:49:07;2.50;;;1.13;;
2211;SDS011;48849;48.758;9.158;2023-11-21T11:51:34;1.60;;;1.30;;
2211;SDS011;48849;48.758;9.158;2023-11-21T11:54:01;1.50;;;1.25;;
2211;SDS011;48849;48.758;9.158;2023-11-21T11:56:30;1.92;;;1.33;;
2211;SDS011;48849;48.758;9.158;2023-11-21T11:59:00;2.50;;;1.33;;
2211;SDS011;48849;48.758;9.158;2023-11-21T12:01:28;1.80;;;1.10;;
2211;SDS011;48849;48.758;9.158;2023-11-21T12:07:00;1.42;;;1.30;;
2211;SDS011;48849;48.758;9.158;2023-11-21T12:09:29;1.15;;;1.05;;
2211;SDS011;48849;48.758;9.158;2023-11-21T12:11:58;1.40;;;1.30;;
2211;SDS011;48849;48.758;9.158;2023-11-21T12:14:26;1.10;;;1.00;;
2211;SDS011;48849;48.758;9.158;2023-11-21T12:16:53;1.30;;;1.20;;
2211;SDS011;48849;48.758;9.158;2023-11-21T12:19:20;2.35;;;1.20;;
2211;SDS011;48849;48.758;9.158;2023-11-21T12:21:48;1.52;;;1.42;;
2211;SDS011;48849;48.758;9.158;2023-11-21T12:24:16;1.65;;;1.55;;
2211;SDS011;48849;48.758;9.158;2023-11-21T12:26:43;2.17;;;1.98;;
2211;SDS011;48849;48.758;9.158;2023-11-21T12:29:11;3.65;;;2.10;;
2211;SDS011;48849;48.758;9.158;2023-11-21T12:31:38;2.10;;;2.00;;
2211;SDS011;48849;48.758;9.158;2023-11-21T12:34:06;2.67;;;1.70;;
2211;SDS011;48849;48.758;9.158;2023-11-21T12:36:34;2.28;;;2.08;;
2211;SDS011;48849;48.758;9.158;2023-11-21T12:39:01;1.90;;;1.80;;
2211;SDS011;48849;48.758;9.158;2023-11-21T12:41:28;2.25;;;1.92;;
2211;SDS011;48849;48.758;9.158;2023-11-21T12:43:56;2.15;;;1.95;;
2211;SDS011;48849;48.758;9.158;2023-11-21T12:46:25;2.05;;;1.88;;
2211;SDS011;48849;48.758;9.158;2023-11-21T12:48:55;3.28;;;2.30;;
2211;SDS011;48849;48.758;9.158;2023-11-21T12:51:23;2.30;;;2.08;;
2211;SDS011;48849;48.758;9.158;2023-11-21T12:53:50;2.50;;;2.30;;
2211;SDS011;48849;48.758;9.158;2023-11-21T12:56:17;2.00;;;1.90;;
2211;SDS011;48849;48.758;9.158;2023-11-21T12:58:48;1.90;;;1.70;;
2211;SDS011;48849;48.758;9.158;2023-11-21T13:01:17;1.80;;;1.70;;
2211;SDS011;48849;48.758;9.158;2023-11-21T13:03:48;8.15;;;7.07;;
2211;SDS011;48849;48.758;9.158;2023-11-21T13:06:17;7.00;;;6.28;;
2211;SDS011;48849;48.758;9.158;2023-11-21T13:08:44;5.18;;;4.72;;
2211;SDS011;48849;48.758;9.158;2023-11-21T13:11:11;2.33;;;2.13;;
2211;SDS011;48849;48.758;9.158;2023-11-21T13:13:40;2.05;;;1.67;;
2211;SDS011;48849;48.758;9.158;2023-11-21T13:16:08;1.48;;;1.38;;
2211;SDS011;48849;48.758;9.158;2023-11-21T13:18:36;1.67;;;1.45;;
2211;SDS011;48849;48.758;9.158;2023-11-21T13:21:07;1.80;;;1.70;;
2211;SDS011;48849;48.758;9.158;2023-11-21T13:23:38;1.80;;;1.70;;
2211;SDS011;48849;48.758;9.158;2023-11-21T13:26:06;2.20;;;1.90;;
2211;SDS011;48849;48.758;9.158;2023-11-21T13:28:34;3.63;;;3.30;;
2211;SDS011;48849;48.758;9.158;2023-11-21T13:31:02;3.17;;;2.88;;
2211;SDS011;48849;48.758;9.158;2023-11-21T13:33:34;2.28;;;1.40;;
2211;SDS011;48849;48.758;9.158;2023-11-21T13:36:03;1.48;;;1.10;;
2211;SDS011;48849;48.758;9.158;2023-11-21T13:38:34;1.10;;;0.80;;
2211;SDS011;48849;48.758;9.158;2023-11-21T13:41:02;4.32;;;1.15;;
2211;SDS011;48849;48.758;9.158;2023-11-21T13:43:32;3.35;;;1.35;;
2211;SDS011;48849;48.758;9.158;2023-11-21T13:45:59;3.72;;;3.00;;
2211;SDS011;48849;48.758;9.158;2023-11-21T13:48:38;5.70;;;4.53;;
2211;SDS011;48849;48.758;9.158;2023-11-21T13:51:08;4.25;;;3.05;;
2211;SDS011;48849;48.758;9.158;2023-11-21T13:53:43;2.42;;;1.80;;
2211;SDS011;48849;48.758;9.158;2023-11-21T13:56:12;3.88;;;2.17;;
2211;SDS011;48849;48.758;9.158;2023-11-21T13:58:44;7.00;;;5.10;;
2211;SDS011;48849;48.758;9.158;2023-11-21T14:01:15;4.82;;;3.15;;
2211;SDS011;48849;48.758;9.158;2023-11-21T14:04:07;9.88;;;7.28;;
2211;SDS011;48849;48.758;9.158;2023-11-21T14:06:44;8.07;;;5.85;;
2211;SDS011;48849;48.758;9.158;2023-11-21T14:09:15;1.50;;;1.40;;
2211;SDS011;48849;48.758;9.158;2023-11-21T14:11:49;1.80;;;1.40;;
2211;SDS011;48849;48.758;9.158;2023-11-21T14:14:17;2.15;;;1.70;;
2211;SDS011;48849;48.758;9.158;2023-11-21T14:16:44;2.67;;;1.88;;
2211;SDS011;48849;48.758;9.158;2023-11-21T14:19:11;2.40;;;2.20;;
2211;SDS011;48849;48.758;9.158;2023-11-21T14:21:41;2.20;;;2.00;;
2211;SDS011;48849;48.758;9.158;2023-11-21T14:24:09;2.42;;;2.20;;
2211;SDS011;48849;48.758;9.158;2023-11-21T14:26:39;1.92;;;1.83;;
2211;SDS011;48849;48.758;9.158;2023-11-21T14:29:07;2.28;;;2.08;;
2211;SDS011;48849;48.758;9.158;2023-11-21T14:31:36;2.90;;;2.53;;
2211;SDS011;48849;48.758;9.158;2023-11-21T14:34:02;3.50;;;2.88;;
2211;SDS011;48849;48.758;9.158;2023-11-21T14:36:31;10.65;;;8.80;;
2211;SDS011;48849;48.758;9.158;2023-11-21T14:38:58;7.32;;;3.90;;
2211;SDS011;48849;48.758;9.158;2023-11-21T14:41:25;2.75;;;2.30;;
2211;SDS011;48849;48.758;9.158;2023-11-21T14:43:54;7.88;;;6.70;;
2211;SDS011;48849;48.758;9.158;2023-11-21T14:46:22;3.67;;;3.00;;
2211;SDS011;48849;48.758;9.158;2023-11-21T14:48:49;6.15;;;5.55;;
2211;SDS011;48849;48.758;9.158;2023-11-21T14:51:23;3.90;;;3.60;;
2211;SDS011;48849;48.758;9.158;2023-11-21T14:53:56;3.05;;;2.80;;
2211;SDS011;48849;48.758;9.158;2023-11-21T14:56:29;3.78;;;3.47;;
2211;SDS011;48849;48.758;9.158;2023-11-21T14:58:59;3.53;;;3.22;;
2211;SDS011;48849;48.758;9.158;2023-11-21T15:01:31;5.55;;;5.05;;
2211;SDS011;48849;48.758;9.158;2023-11-21T15:04:09;4.55;;;3.08;;
2211;SDS011;48849;48.758;9.158;2023-11-21T15:06:46;3.38;;;3.08;;
2211;SDS011;48849;48.758;9.158;2023-11-21T15:09:13;4.70;;;2.80;;